sensor_id;sensor_type;location;lat;lon;timestamp;temperature;humidity
2973;DHT22;1496;51.404;7.232;2023-01-04T00:01:21;7.10;99.90
2973;DHT22;1496;51.404;7.232;2023-01-04T00:03:50;7.10;99.90
2973;DHT22;1496;51.404;7.232;2023-01-04T00:06:17;7.10;99.90
2973;DHT22;1496;51.404;7.232;2023-01-04T00:08:45;7.10;99.90
2973;DHT22;1496;51.404;7.232;2023-01-04T00:11:15;7.00;99.90
2973;DHT22;1496;51.404;7.232;2023-01-04T00:13:48;7.10;99.90
2973;DHT22;1496;51.404;7.232;2023-01-04T00:16:18;7.20;99.90
2973;DHT22;1496;51.404;7.232;2023-01-04T00:18:47;7.10;99.90
2973;DHT22;1496;51.404;7.232;2023-01-04T00:21:18;7.10;99.90
2973;DHT22;1496;51.404;7.232;2023-01-04T00:23:47;7.20;99.90
2973;DHT22;1496;51.404;7.232;2023-01-04T00:26:18;7.20;99.90
2973;DHT22;1496;51.404;7.232;2023-01-04T00:28:44;7.20;99.90
2973;DHT22;1496;51.404;7.232;2023-01-04T00:31:13;7.30;99.90
2973;DHT22;1496;51.404;7.232;2023-01-04T00:33:40;7.30;99.90
2973;DHT22;1496;51.404;7.232;2023-01-04T00:36:09;7.30;99.90
2973;DHT22;1496;51.404;7.232;2023-01-04T00:38:36;7.40;99.90
2973;DHT22;1496;51.404;7.232;2023-01-04T00:41:05;7.40;99.90
2973;DHT22;1496;51.404;7.232;2023-01-04T00:43:34;7.50;99.90
2973;DHT22;1496;51.404;7.232;2023-01-04T00:46:01;7.60;99.90
2973;DHT22;1496;51.404;7.232;2023-01-04T00:48:29;7.60;99.90
2973;DHT22;1496;51.404;7.232;2023-01-04T00:50:56;7.60;99.90
2973;DHT22;1496;51.404;7.232;2023-01-04T00:53:25;7.60;99.90
2973;DHT22;1496;51.404;7.232;2023-01-04T00:55:57;7.60;99.90
2973;DHT22;1496;51.404;7.232;2023-01-04T00:58:25;7.60;99.90
2973;DHT22;1496;51.404;7.232;2023-01-04T01:00:52;7.60;99.90
2973;DHT22;1496;51.404;7.232;2023-01-04T01:03:20;7.60;99.90
2973;DHT22;1496;51.404;7.232;2023-01-04T01:05:47;7.60;99.90
2973;DHT22;1496;51.404;7.232;2023-01-04T01:08:14;7.60;99.90
2973;DHT22;1496;51.404;7.232;2023-01-04T01:10:53;7.50;99.90
2973;DHT22;1496;51.404;7.232;2023-01-04T01:13:21;7.50;99.90
2973;DHT22;1496;51.404;7.232;2023-01-04T01:15:52;7.60;99.90
2973;DHT22;1496;51.404;7.232;2023-01-04T01:18:21;7.60;99.90
2973;DHT22;1496;51.404;7.232;2023-01-04T01:20:47;7.60;99.90
2973;DHT22;1496;51.404;7.232;2023-01-04T01:23:14;7.50;99.90
2973;DHT22;1496;51.404;7.232;2023-01-04T01:25:41;7.50;99.90
2973;DHT22;1496;51.404;7.232;2023-01-04T01:28:09;7.50;99.90
2973;DHT22;1496;51.404;7.232;2023-01-04T01:30:41;7.40;99.90
2973;DHT22;1496;51.404;7.232;2023-01-04T01:33:09;7.40;99.90
2973;DHT22;1496;51.404;7.232;2023-01-04T01:35:36;7.40;99.90
2973;DHT22;1496;51.404;7.232;2023-01-04T01:38:03;7.30;99.90
2973;DHT22;1496;51.404;7.232;2023-01-04T01:40:31;7.30;99.90
2973;DHT22;1496;51.404;7.232;2023-01-04T01:42:57;7.30;99.90
2973;DHT22;1496;51.404;7.232;2023-01-04T01:45:28;7.30;99.90
2973;DHT22;1496;51.404;7.232;2023-01-04T01:48:09;7.30;99.90
2973;DHT22;1496;51.404;7.232;2023-01-04T01:50:39;7.20;99.90
2973;DHT22;1496;51.404;7.232;2023-01-04T01:53:10;7.20;99.90
2973;DHT22;1496;51.404;7.232;2023-01-04T01:55:39;7.20;99.90
2973;DHT22;1496;51.404;7.232;2023-01-04T01:58:08;7.20;99.90
2973;DHT22;1496;51.404;7.232;2023-01-04T02:00:42;7.20;99.90
2973;DHT22;1496;51.404;7.232;2023-01-04T02:03:17;7.10;99.90
2973;DHT22;1496;51.404;7.232;2023-01-04T02:05:48;7.10;99.90
2973;DHT22;1496;51.404;7.232;2023-01-04T02:08:21;7.10;99.90
2973;DHT22;1496;51.404;7.232;2023-01-04T02:10:49;7.10;99.90
2973;DHT22;1496;51.404;7.232;2023-01-04T02:13:26;7.10;99.90
2973;DHT22;1496;51.404;7.232;2023-01-04T02:16:32;7.10;99.90
2973;DHT22;1496;51.404;7.232;2023-01-04T02:34:02;7.10;1.00
2973;DHT22;1496;51.404;7.232;2023-01-04T02:36:57;7.10;1.00
2973;DHT22;1496;51.404;7.232;2023-01-04T02:45:35;7.10;92.40
2973;DHT22;1496;51.404;7.232;2023-01-04T02:48:07;7.10;1.00
2973;DHT22;1496;51.404;7.232;2023-01-04T02:50:58;7.10;1.00
2973;DHT22;1496;51.404;7.232;2023-01-04T02:53:32;7.20;99.90
2973;DHT22;1496;51.404;7.232;2023-01-04T03:01:34;7.20;99.90
2973;DHT22;1496;51.404;7.232;2023-01-04T03:04:37;7.20;99.90
2973;DHT22;1496;51.404;7.232;2023-01-04T03:07:51;7.20;99.90
2973;DHT22;1496;51.404;7.232;2023-01-04T03:10:42;7.30;99.90
2973;DHT22;1496;51.404;7.232;2023-01-04T03:13:23;7.30;99.90
2973;DHT22;1496;51.404;7.232;2023-01-04T03:15:54;7.40;99.90
2973;DHT22;1496;51.404;7.232;2023-01-04T03:18:26;7.30;99.90
2973;DHT22;1496;51.404;7.232;2023-01-04T03:20:56;7.30;99.90
2973;DHT22;1496;51.404;7.232;2023-01-04T03:23:27;7.40;99.90
2973;DHT22;1496;51.404;7.232;2023-01-04T03:26:17;7.40;99.90
2973;DHT22;1496;51.404;7.232;2023-01-04T03:29:12;7.40;99.90
2973;DHT22;1496;51.404;7.232;2023-01-04T03:32:07;7.40;99.90
2973;DHT22;1496;51.404;7.232;2023-01-04T03:34:54;7.50;99.90
2973;DHT22;1496;51.404;7.232;2023-01-04T03:37:59;7.40;99.90
2973;DHT22;1496;51.404;7.232;2023-01-04T03:41:02;7.50;99.90
2973;DHT22;1496;51.404;7.232;2023-01-04T03:44:00;7.50;99.90
2973;DHT22;1496;51.404;7.232;2023-01-04T03:46:50;7.60;99.90
2973;DHT22;1496;51.404;7.232;2023-01-04T03:49:50;7.60;99.90
2973;DHT22;1496;51.404;7.232;2023-01-04T03:52:24;7.60;99.90
2973;DHT22;1496;51.404;7.232;2023-01-04T03:54:52;7.60;99.90
2973;DHT22;1496;51.404;7.232;2023-01-04T03:57:22;7.70;99.90
2973;DHT22;1496;51.404;7.232;2023-01-04T03:59:58;7.70;99.90
2973;DHT22;1496;51.404;7.232;2023-01-04T04:02:32;7.70;99.90
2973;DHT22;1496;51.404;7.232;2023-01-04T04:04:59;7.80;99.90
2973;DHT22;1496;51.404;7.232;2023-01-04T04:07:45;7.70;99.90
2973;DHT22;1496;51.404;7.232;2023-01-04T04:10:29;7.70;99.90
2973;DHT22;1496;51.404;7.232;2023-01-04T04:12:57;7.70;99.90
2973;DHT22;1496;51.404;7.232;2023-01-04T04:15:23;7.70;99.90
2973;DHT22;1496;51.404;7.232;2023-01-04T04:17:50;7.70;99.90
2973;DHT22;1496;51.404;7.232;2023-01-04T04:20:19;7.70;99.90
2973;DHT22;1496;51.404;7.232;2023-01-04T04:22:45;7.70;99.90
2973;DHT22;1496;51.404;7.232;2023-01-04T04:25:12;7.70;99.90
2973;DHT22;1496;51.404;7.232;2023-01-04T04:27:39;7.80;99.90
2973;DHT22;1496;51.404;7.232;2023-01-04T04:30:06;7.80;99.90
2973;DHT22;1496;51.404;7.232;2023-01-04T04:32:33;7.80;99.90
2973;DHT22;1496;51.404;7.232;2023-01-04T04:35:01;7.80;99.90
2973;DHT22;1496;51.404;7.232;2023-01-04T04:37:27;7.80;99.90
2973;DHT22;1496;51.404;7.232;2023-01-04T04:39:57;7.80;99.90
2973;DHT22;1496;51.404;7.232;2023-01-04T04:42:25;7.80;99.90
2973;DHT22;1496;51.404;7.232;2023-01-04T04:44:51;7.80;99.90
2973;DHT22;1496;51.404;7.232;2023-01-04T04:47:19;7.80;99.90
2973;DHT22;1496;51.404;7.232;2023-01-04T04:49:45;7.90;99.90
2973;DHT22;1496;51.404;7.232;2023-01-04T04:52:13;7.80;99.90
2973;DHT22;1496;51.404;7.232;2023-01-04T04:54:39;7.90;99.90
2973;DHT22;1496;51.404;7.232;2023-01-04T04:57:07;7.90;99.90
2973;DHT22;1496;51.404;7.232;2023-01-04T04:59:34;7.90;99.90
2973;DHT22;1496;51.404;7.232;2023-01-04T05:02:01;7.90;99.90
2973;DHT22;1496;51.404;7.232;2023-01-04T05:04:29;7.90;99.90
2973;DHT22;1496;51.404;7.232;2023-01-04T05:06:55;8.00;99.90
2973;DHT22;1496;51.404;7.232;2023-01-04T05:09:22;7.90;99.90
2973;DHT22;1496;51.404;7.232;2023-01-04T05:11:48;7.90;99.90
2973;DHT22;1496;51.404;7.232;2023-01-04T05:14:33;7.90;99.90
2973;DHT22;1496;51.404;7.232;2023-01-04T05:16:59;7.90;99.90
2973;DHT22;1496;51.404;7.232;2023-01-04T05:19:27;8.00;99.90
2973;DHT22;1496;51.404;7.232;2023-01-04T05:21:55;8.00;99.90
2973;DHT22;1496;51.404;7.232;2023-01-04T05:24:21;8.00;99.90
2973;DHT22;1496;51.404;7.232;2023-01-04T05:26:47;8.00;99.90
2973;DHT22;1496;51.404;7.232;2023-01-04T05:29:15;8.10;99.90
2973;DHT22;1496;51.404;7.232;2023-01-04T05:32:01;8.10;99.90
2973;DHT22;1496;51.404;7.232;2023-01-04T05:34:28;8.10;99.90
2973;DHT22;1496;51.404;7.232;2023-01-04T05:36:56;8.10;99.90
2973;DHT22;1496;51.404;7.232;2023-01-04T05:39:22;8.20;99.90
2973;DHT22;1496;51.404;7.232;2023-01-04T05:41:48;8.20;99.90
2973;DHT22;1496;51.404;7.232;2023-01-04T05:44:33;8.30;99.90
2973;DHT22;1496;51.404;7.232;2023-01-04T05:47:02;8.30;99.90
2973;DHT22;1496;51.404;7.232;2023-01-04T05:49:29;8.40;99.90
2973;DHT22;1496;51.404;7.232;2023-01-04T05:51:55;8.40;99.90
2973;DHT22;1496;51.404;7.232;2023-01-04T05:54:22;8.50;99.90
2973;DHT22;1496;51.404;7.232;2023-01-04T05:56:48;8.50;99.90
2973;DHT22;1496;51.404;7.232;2023-01-04T05:59:16;8.50;99.90
2973;DHT22;1496;51.404;7.232;2023-01-04T06:01:43;8.50;99.90
2973;DHT22;1496;51.404;7.232;2023-01-04T06:04:11;8.50;99.90
2973;DHT22;1496;51.404;7.232;2023-01-04T06:06:38;8.50;99.90
2973;DHT22;1496;51.404;7.232;2023-01-04T06:09:04;8.50;99.90
2973;DHT22;1496;51.404;7.232;2023-01-04T06:11:30;8.60;99.90
2973;DHT22;1496;51.404;7.232;2023-01-04T06:13:58;8.60;99.90
2973;DHT22;1496;51.404;7.232;2023-01-04T06:16:24;8.60;99.90
2973;DHT22;1496;51.404;7.232;2023-01-04T06:18:54;8.60;99.90
2973;DHT22;1496;51.404;7.232;2023-01-04T06:21:21;8.60;99.90
2973;DHT22;1496;51.404;7.232;2023-01-04T06:23:48;8.60;99.90
2973;DHT22;1496;51.404;7.232;2023-01-04T06:26:15;8.60;99.90
2973;DHT22;1496;51.404;7.232;2023-01-04T06:28:42;8.70;99.90
2973;DHT22;1496;51.404;7.232;2023-01-04T06:31:10;8.70;99.90
2973;DHT22;1496;51.404;7.232;2023-01-04T06:33:38;8.80;99.90
2973;DHT22;1496;51.404;7.232;2023-01-04T06:36:05;8.70;99.90
2973;DHT22;1496;51.404;7.232;2023-01-04T06:38:32;8.80;99.90
2973;DHT22;1496;51.404;7.232;2023-01-04T06:41:00;8.80;99.90
2973;DHT22;1496;51.404;7.232;2023-01-04T06:43:26;8.80;99.90
2973;DHT22;1496;51.404;7.232;2023-01-04T06:45:52;8.80;99.90
2973;DHT22;1496;51.404;7.232;2023-01-04T06:48:19;8.70;99.90
2973;DHT22;1496;51.404;7.232;2023-01-04T06:50:46;8.70;99.90
2973;DHT22;1496;51.404;7.232;2023-01-04T06:53:13;8.70;99.90
2973;DHT22;1496;51.404;7.232;2023-01-04T06:55:39;8.70;99.90
2973;DHT22;1496;51.404;7.232;2023-01-04T06:58:05;8.70;99.90
2973;DHT22;1496;51.404;7.232;2023-01-04T07:00:33;8.70;99.90
2973;DHT22;1496;51.404;7.232;2023-01-04T07:03:01;8.70;99.90
2973;DHT22;1496;51.404;7.232;2023-01-04T07:05:28;8.70;99.90
2973;DHT22;1496;51.404;7.232;2023-01-04T07:07:57;8.70;99.90
2973;DHT22;1496;51.404;7.232;2023-01-04T07:10:24;8.80;99.90
2973;DHT22;1496;51.404;7.232;2023-01-04T07:12:51;8.80;99.90
2973;DHT22;1496;51.404;7.232;2023-01-04T07:15:19;8.80;99.90
2973;DHT22;1496;51.404;7.232;2023-01-04T07:17:47;8.80;99.90
2973;DHT22;1496;51.404;7.232;2023-01-04T07:20:16;8.90;99.90
2973;DHT22;1496;51.404;7.232;2023-01-04T07:22:42;8.90;99.90
2973;DHT22;1496;51.404;7.232;2023-01-04T07:25:09;8.90;99.90
2973;DHT22;1496;51.404;7.232;2023-01-04T07:27:35;8.90;99.90
2973;DHT22;1496;51.404;7.232;2023-01-04T07:30:03;9.00;99.90
2973;DHT22;1496;51.404;7.232;2023-01-04T07:32:31;9.00;99.90
2973;DHT22;1496;51.404;7.232;2023-01-04T07:34:59;9.00;99.90
2973;DHT22;1496;51.404;7.232;2023-01-04T07:37:27;8.90;99.90
2973;DHT22;1496;51.404;7.232;2023-01-04T07:39:54;8.90;99.90
2973;DHT22;1496;51.404;7.232;2023-01-04T07:42:20;8.90;99.90
2973;DHT22;1496;51.404;7.232;2023-01-04T07:44:47;8.90;99.90
2973;DHT22;1496;51.404;7.232;2023-01-04T07:47:15;8.80;99.90
2973;DHT22;1496;51.404;7.232;2023-01-04T07:49:42;8.80;99.90
2973;DHT22;1496;51.404;7.232;2023-01-04T07:52:08;8.90;99.90
2973;DHT22;1496;51.404;7.232;2023-01-04T07:54:35;8.90;99.90
2973;DHT22;1496;51.404;7.232;2023-01-04T07:57:01;9.00;99.90
2973;DHT22;1496;51.404;7.232;2023-01-04T07:59:29;9.00;99.90
2973;DHT22;1496;51.404;7.232;2023-01-04T08:01:57;9.00;99.90
2973;DHT22;1496;51.404;7.232;2023-01-04T08:04:24;8.90;99.90
2973;DHT22;1496;51.404;7.232;2023-01-04T08:06:51;8.90;99.90
2973;DHT22;1496;51.404;7.232;2023-01-04T08:09:18;9.00;99.90
2973;DHT22;1496;51.404;7.232;2023-01-04T08:11:47;9.00;99.90
2973;DHT22;1496;51.404;7.232;2023-01-04T08:14:15;9.10;99.90
2973;DHT22;1496;51.404;7.232;2023-01-04T08:16:42;9.10;99.90
2973;DHT22;1496;51.404;7.232;2023-01-04T08:19:14;9.10;99.90
2973;DHT22;1496;51.404;7.232;2023-01-04T08:21:45;9.10;99.90
2973;DHT22;1496;51.404;7.232;2023-01-04T08:24:16;9.20;99.90
2973;DHT22;1496;51.404;7.232;2023-01-04T08:26:44;9.20;99.90
2973;DHT22;1496;51.404;7.232;2023-01-04T08:29:12;9.20;99.90
2973;DHT22;1496;51.404;7.232;2023-01-04T08:31:40;9.20;99.90
2973;DHT22;1496;51.404;7.232;2023-01-04T08:34:08;9.20;99.90
2973;DHT22;1496;51.404;7.232;2023-01-04T08:36:56;9.30;99.90
2973;DHT22;1496;51.404;7.232;2023-01-04T08:39:24;9.40;99.90
2973;DHT22;1496;51.404;7.232;2023-01-04T08:41:50;9.40;99.90
2973;DHT22;1496;51.404;7.232;2023-01-04T08:44:19;9.50;99.90
2973;DHT22;1496;51.404;7.232;2023-01-04T08:46:48;9.60;99.90
2973;DHT22;1496;51.404;7.232;2023-01-04T08:49:15;9.60;99.90
2973;DHT22;1496;51.404;7.232;2023-01-04T08:51:41;9.70;99.90
2973;DHT22;1496;51.404;7.232;2023-01-04T08:54:08;9.70;99.90
2973;DHT22;1496;51.404;7.232;2023-01-04T08:56:36;9.80;99.90
2973;DHT22;1496;51.404;7.232;2023-01-04T08:59:03;9.90;99.90
2973;DHT22;1496;51.404;7.232;2023-01-04T09:01:34;9.90;99.90
2973;DHT22;1496;51.404;7.232;2023-01-04T09:04:01;9.90;99.90
2973;DHT22;1496;51.404;7.232;2023-01-04T09:06:28;9.90;99.90
2973;DHT22;1496;51.404;7.232;2023-01-04T09:08:56;10.00;99.90
2973;DHT22;1496;51.404;7.232;2023-01-04T09:11:24;10.00;99.90
2973;DHT22;1496;51.404;7.232;2023-01-04T09:13:59;9.90;99.90
2973;DHT22;1496;51.404;7.232;2023-01-04T09:16:27;9.90;99.90
2973;DHT22;1496;51.404;7.232;2023-01-04T09:18:54;9.90;99.90
2973;DHT22;1496;51.404;7.232;2023-01-04T09:21:21;9.90;99.90
2973;DHT22;1496;51.404;7.232;2023-01-04T09:23:48;9.90;99.90
2973;DHT22;1496;51.404;7.232;2023-01-04T09:26:21;9.90;99.90
2973;DHT22;1496;51.404;7.232;2023-01-04T09:28:51;9.90;99.90
2973;DHT22;1496;51.404;7.232;2023-01-04T09:31:21;10.00;99.90
2973;DHT22;1496;51.404;7.232;2023-01-04T09:33:48;10.00;99.90
2973;DHT22;1496;51.404;7.232;2023-01-04T09:36:18;10.00;99.90
2973;DHT22;1496;51.404;7.232;2023-01-04T09:38:45;10.10;99.90
2973;DHT22;1496;51.404;7.232;2023-01-04T09:41:25;10.20;99.90
2973;DHT22;1496;51.404;7.232;2023-01-04T09:43:57;10.30;99.90
2973;DHT22;1496;51.404;7.232;2023-01-04T09:46:52;10.30;99.90
2973;DHT22;1496;51.404;7.232;2023-01-04T09:49:47;10.30;99.90
2973;DHT22;1496;51.404;7.232;2023-01-04T09:55:31;10.20;99.90
2973;DHT22;1496;51.404;7.232;2023-01-04T10:00:46;10.30;99.90
2973;DHT22;1496;51.404;7.232;2023-01-04T10:03:23;10.30;99.90
2973;DHT22;1496;51.404;7.232;2023-01-04T10:05:54;10.30;99.90
2973;DHT22;1496;51.404;7.232;2023-01-04T10:08:22;10.30;99.90
2973;DHT22;1496;51.404;7.232;2023-01-04T10:14:01;10.40;99.90
2973;DHT22;1496;51.404;7.232;2023-01-04T10:16:46;10.40;99.90
2973;DHT22;1496;51.404;7.232;2023-01-04T10:19:24;10.40;99.90
2973;DHT22;1496;51.404;7.232;2023-01-04T10:21:59;10.40;99.90
2973;DHT22;1496;51.404;7.232;2023-01-04T10:24:44;10.40;99.90
2973;DHT22;1496;51.404;7.232;2023-01-04T10:30:24;10.30;99.90
2973;DHT22;1496;51.404;7.232;2023-01-04T10:33:14;10.40;99.90
2973;DHT22;1496;51.404;7.232;2023-01-04T10:35:43;10.40;99.90
2973;DHT22;1496;51.404;7.232;2023-01-04T10:38:23;10.40;99.90
2973;DHT22;1496;51.404;7.232;2023-01-04T10:40:53;10.30;99.90
2973;DHT22;1496;51.404;7.232;2023-01-04T10:46:13;10.30;99.90
2973;DHT22;1496;51.404;7.232;2023-01-04T10:51:44;10.20;99.90
2973;DHT22;1496;51.404;7.232;2023-01-04T10:54:47;10.20;99.90
2973;DHT22;1496;51.404;7.232;2023-01-04T11:00:37;10.30;99.90
2973;DHT22;1496;51.404;7.232;2023-01-04T11:08:15;10.30;99.90
2973;DHT22;1496;51.404;7.232;2023-01-04T11:10:50;10.30;99.90
2973;DHT22;1496;51.404;7.232;2023-01-04T11:13:18;10.30;99.90
2973;DHT22;1496;51.404;7.232;2023-01-04T11:15:44;10.30;99.90
2973;DHT22;1496;51.404;7.232;2023-01-04T11:18:16;10.40;99.90
2973;DHT22;1496;51.404;7.232;2023-01-04T11:20:43;10.40;99.90
2973;DHT22;1496;51.404;7.232;2023-01-04T11:23:15;10.40;99.90
2973;DHT22;1496;51.404;7.232;2023-01-04T11:26:01;10.40;99.90
2973;DHT22;1496;51.404;7.232;2023-01-04T11:28:36;10.40;99.90
2973;DHT22;1496;51.404;7.232;2023-01-04T11:33:53;10.50;99.90
2973;DHT22;1496;51.404;7.232;2023-01-04T11:39:25;10.50;99.90
2973;DHT22;1496;51.404;7.232;2023-01-04T11:42:03;10.50;99.90
2973;DHT22;1496;51.404;7.232;2023-01-04T11:44:34;10.50;99.90
2973;DHT22;1496;51.404;7.232;2023-01-04T11:47:20;10.50;99.90
2973;DHT22;1496;51.404;7.232;2023-01-04T11:49:51;10.50;99.90
2973;DHT22;1496;51.404;7.232;2023-01-04T11:52:33;10.50;99.90
2973;DHT22;1496;51.404;7.232;2023-01-04T11:55:22;10.60;99.90
2973;DHT22;1496;51.404;7.232;2023-01-04T11:58:13;10.60;99.90
2973;DHT22;1496;51.404;7.232;2023-01-04T12:00:55;10.60;99.90
2973;DHT22;1496;51.404;7.232;2023-01-04T12:03:29;10.60;99.90
2973;DHT22;1496;51.404;7.232;2023-01-04T12:05:58;10.60;99.90
2973;DHT22;1496;51.404;7.232;2023-01-04T12:08:33;10.70;99.90
2973;DHT22;1496;51.404;7.232;2023-01-04T12:11:04;10.70;99.90
2973;DHT22;1496;51.404;7.232;2023-01-04T12:13:32;10.70;99.90
2973;DHT22;1496;51.404;7.232;2023-01-04T12:16:20;10.80;99.90
2973;DHT22;1496;51.404;7.232;2023-01-04T12:18:49;10.80;99.90
2973;DHT22;1496;51.404;7.232;2023-01-04T12:21:21;10.80;99.90
2973;DHT22;1496;51.404;7.232;2023-01-04T12:23:48;10.80;99.90
2973;DHT22;1496;51.404;7.232;2023-01-04T12:26:16;10.70;99.90
2973;DHT22;1496;51.404;7.232;2023-01-04T12:28:49;10.70;99.90
2973;DHT22;1496;51.404;7.232;2023-01-04T12:31:26;10.70;99.90
2973;DHT22;1496;51.404;7.232;2023-01-04T12:33:55;10.70;99.90
2973;DHT22;1496;51.404;7.232;2023-01-04T12:50:17;10.60;99.90
2973;DHT22;1496;51.404;7.232;2023-01-04T12:53:03;10.70;99.90
2973;DHT22;1496;51.404;7.232;2023-01-04T12:58:02;10.70;99.90
2973;DHT22;1496;51.404;7.232;2023-01-04T13:08:18;10.70;99.90
2973;DHT22;1496;51.404;7.232;2023-01-04T13:10:55;10.70;99.90
2973;DHT22;1496;51.404;7.232;2023-01-04T13:16:40;10.80;99.90
2973;DHT22;1496;51.404;7.232;2023-01-04T13:19:37;10.80;99.90
2973;DHT22;1496;51.404;7.232;2023-01-04T13:22:11;10.80;99.90
2973;DHT22;1496;51.404;7.232;2023-01-04T13:24:43;10.80;99.90
2973;DHT22;1496;51.404;7.232;2023-01-04T13:27:17;10.90;99.90
2973;DHT22;1496;51.404;7.232;2023-01-04T13:29:45;10.90;99.90
2973;DHT22;1496;51.404;7.232;2023-01-04T13:32:22;10.90;99.90
2973;DHT22;1496;51.404;7.232;2023-01-04T13:37:47;10.90;99.90
2973;DHT22;1496;51.404;7.232;2023-01-04T13:40:26;10.90;99.90
2973;DHT22;1496;51.404;7.232;2023-01-04T13:45:48;11.00;99.90
2973;DHT22;1496;51.404;7.232;2023-01-04T13:48:20;10.90;99.90
2973;DHT22;1496;51.404;7.232;2023-01-04T13:51:25;11.00;99.90
2973;DHT22;1496;51.404;7.232;2023-01-04T13:53:57;11.00;99.90
2973;DHT22;1496;51.404;7.232;2023-01-04T13:56:26;11.00;99.90
2973;DHT22;1496;51.404;7.232;2023-01-04T13:58:54;11.00;99.90
2973;DHT22;1496;51.404;7.232;2023-01-04T14:01:25;11.00;99.90
2973;DHT22;1496;51.404;7.232;2023-01-04T14:03:55;11.10;99.90
2973;DHT22;1496;51.404;7.232;2023-01-04T14:06:58;11.10;99.90
2973;DHT22;1496;51.404;7.232;2023-01-04T14:09:30;11.10;99.90
2973;DHT22;1496;51.404;7.232;2023-01-04T14:11:59;11.10;99.90
2973;DHT22;1496;51.404;7.232;2023-01-04T14:14:50;11.10;99.90
2973;DHT22;1496;51.404;7.232;2023-01-04T14:17:34;11.10;99.90
2973;DHT22;1496;51.404;7.232;2023-01-04T14:22:56;11.10;99.90
2973;DHT22;1496;51.404;7.232;2023-01-04T14:28:25;11.10;99.90
2973;DHT22;1496;51.404;7.232;2023-01-04T14:31:13;11.10;99.90
2973;DHT22;1496;51.404;7.232;2023-01-04T14:33:44;11.00;99.90
2973;DHT22;1496;51.404;7.232;2023-01-04T14:41:42;11.00;99.90
2973;DHT22;1496;51.404;7.232;2023-01-04T14:44:26;11.00;99.90
2973;DHT22;1496;51.404;7.232;2023-01-04T14:46:59;11.00;99.90
2973;DHT22;1496;51.404;7.232;2023-01-04T14:49:43;11.00;99.90
2973;DHT22;1496;51.404;7.232;2023-01-04T14:52:19;11.00;99.90
2973;DHT22;1496;51.404;7.232;2023-01-04T14:54:49;11.00;99.90
2973;DHT22;1496;51.404;7.232;2023-01-04T14:57:15;11.10;99.90
2973;DHT22;1496;51.404;7.232;2023-01-04T14:59:42;11.10;99.90
2973;DHT22;1496;51.404;7.232;2023-01-04T15:02:11;11.10;99.90
2973;DHT22;1496;51.404;7.232;2023-01-04T15:04:38;11.20;99.90
2973;DHT22;1496;51.404;7.232;2023-01-04T15:07:04;11.10;99.90
2973;DHT22;1496;51.404;7.232;2023-01-04T15:09:31;11.10;99.90
2973;DHT22;1496;51.404;7.232;2023-01-04T15:11:58;11.10;99.90
2973;DHT22;1496;51.404;7.232;2023-01-04T15:14:26;11.20;99.90
2973;DHT22;1496;51.404;7.232;2023-01-04T15:16:53;11.20;99.90
2973;DHT22;1496;51.404;7.232;2023-01-04T15:19:20;11.20;99.90
2973;DHT22;1496;51.404;7.232;2023-01-04T15:21:47;11.20;99.90
2973;DHT22;1496;51.404;7.232;2023-01-04T15:24:14;11.20;99.90
2973;DHT22;1496;51.404;7.232;2023-01-04T15:26:40;11.30;99.90
2973;DHT22;1496;51.404;7.232;2023-01-04T15:29:08;11.30;99.90
2973;DHT22;1496;51.404;7.232;2023-01-04T15:31:36;11.30;99.90
2973;DHT22;1496;51.404;7.232;2023-01-04T15:34:04;11.40;99.90
2973;DHT22;1496;51.404;7.232;2023-01-04T15:36:35;11.40;99.90
2973;DHT22;1496;51.404;7.232;2023-01-04T15:39:05;11.40;99.90
2973;DHT22;1496;51.404;7.232;2023-01-04T15:41:32;11.40;99.90
2973;DHT22;1496;51.404;7.232;2023-01-04T15:44:17;11.40;99.90
2973;DHT22;1496;51.404;7.232;2023-01-04T15:46:45;11.40;99.90
2973;DHT22;1496;51.404;7.232;2023-01-04T15:49:11;11.40;99.90
2973;DHT22;1496;51.404;7.232;2023-01-04T15:51:38;11.60;99.90
2973;DHT22;1496;51.404;7.232;2023-01-04T15:54:06;11.50;99.90
2973;DHT22;1496;51.404;7.232;2023-01-04T15:56:33;11.50;99.90
2973;DHT22;1496;51.404;7.232;2023-01-04T15:59:01;11.50;99.90
2973;DHT22;1496;51.404;7.232;2023-01-04T16:01:28;11.50;99.90
2973;DHT22;1496;51.404;7.232;2023-01-04T16:03:56;11.50;99.90
2973;DHT22;1496;51.404;7.232;2023-01-04T16:06:22;11.50;99.90
2973;DHT22;1496;51.404;7.232;2023-01-04T16:08:49;11.50;99.90
2973;DHT22;1496;51.404;7.232;2023-01-04T16:11:21;11.50;99.90
2973;DHT22;1496;51.404;7.232;2023-01-04T16:13:49;11.50;99.90
2973;DHT22;1496;51.404;7.232;2023-01-04T16:16:18;11.50;99.90
2973;DHT22;1496;51.404;7.232;2023-01-04T16:18:48;11.50;99.90
2973;DHT22;1496;51.404;7.232;2023-01-04T16:21:17;11.50;99.90
2973;DHT22;1496;51.404;7.232;2023-01-04T16:23:51;11.50;99.90
2973;DHT22;1496;51.404;7.232;2023-01-04T16:26:18;11.50;99.90
2973;DHT22;1496;51.404;7.232;2023-01-04T16:28:49;11.60;99.90
2973;DHT22;1496;51.404;7.232;2023-01-04T16:31:20;11.60;99.90
2973;DHT22;1496;51.404;7.232;2023-01-04T16:33:50;11.60;99.90
2973;DHT22;1496;51.404;7.232;2023-01-04T16:36:17;11.60;99.90
2973;DHT22;1496;51.404;7.232;2023-01-04T16:38:46;11.60;99.90
2973;DHT22;1496;51.404;7.232;2023-01-04T16:41:16;11.50;99.90
2973;DHT22;1496;51.404;7.232;2023-01-04T16:43:45;11.50;99.90
2973;DHT22;1496;51.404;7.232;2023-01-04T16:48:43;11.30;99.90
2973;DHT22;1496;51.404;7.232;2023-01-04T16:51:12;11.30;99.90
2973;DHT22;1496;51.404;7.232;2023-01-04T16:53:39;11.20;99.90
2973;DHT22;1496;51.404;7.232;2023-01-04T16:56:08;11.10;99.90
2973;DHT22;1496;51.404;7.232;2023-01-04T16:58:36;11.00;99.90
2973;DHT22;1496;51.404;7.232;2023-01-04T17:01:18;11.00;99.90
2973;DHT22;1496;51.404;7.232;2023-01-04T17:03:46;10.90;99.90
2973;DHT22;1496;51.404;7.232;2023-01-04T17:06:23;10.90;99.90
2973;DHT22;1496;51.404;7.232;2023-01-04T17:08:53;10.90;99.90
2973;DHT22;1496;51.404;7.232;2023-01-04T17:11:28;10.90;99.90
2973;DHT22;1496;51.404;7.232;2023-01-04T17:13:56;10.80;99.90
2973;DHT22;1496;51.404;7.232;2023-01-04T17:16:23;10.80;99.90
2973;DHT22;1496;51.404;7.232;2023-01-04T17:18:51;10.80;99.90
2973;DHT22;1496;51.404;7.232;2023-01-04T17:21:22;10.90;99.90
2973;DHT22;1496;51.404;7.232;2023-01-04T17:23:52;10.90;99.90
2973;DHT22;1496;51.404;7.232;2023-01-04T17:26:21;10.90;99.90
2973;DHT22;1496;51.404;7.232;2023-01-04T17:28:49;10.90;99.90
2973;DHT22;1496;51.404;7.232;2023-01-04T17:31:26;11.00;99.90
2973;DHT22;1496;51.404;7.232;2023-01-04T17:33:53;11.00;99.90
2973;DHT22;1496;51.404;7.232;2023-01-04T17:36:21;11.00;99.90
2973;DHT22;1496;51.404;7.232;2023-01-04T17:38:48;11.10;99.90
2973;DHT22;1496;51.404;7.232;2023-01-04T17:41:20;11.10;99.90
2973;DHT22;1496;51.404;7.232;2023-01-04T17:43:49;11.10;99.90
2973;DHT22;1496;51.404;7.232;2023-01-04T17:46:18;11.10;99.90
2973;DHT22;1496;51.404;7.232;2023-01-04T17:48:45;11.10;99.90
2973;DHT22;1496;51.404;7.232;2023-01-04T17:51:17;11.10;99.90
2973;DHT22;1496;51.404;7.232;2023-01-04T17:53:45;11.10;99.90
2973;DHT22;1496;51.404;7.232;2023-01-04T17:56:17;11.00;99.90
2973;DHT22;1496;51.404;7.232;2023-01-04T17:58:45;11.10;99.90
2973;DHT22;1496;51.404;7.232;2023-01-04T18:01:15;11.10;99.90
2973;DHT22;1496;51.404;7.232;2023-01-04T18:03:47;11.10;99.90
2973;DHT22;1496;51.404;7.232;2023-01-04T18:06:18;11.10;99.90
2973;DHT22;1496;51.404;7.232;2023-01-04T18:08:46;11.10;99.90
2973;DHT22;1496;51.404;7.232;2023-01-04T18:11:13;11.10;99.90
2973;DHT22;1496;51.404;7.232;2023-01-04T18:13:42;11.00;99.90
2973;DHT22;1496;51.404;7.232;2023-01-04T18:16:20;11.10;99.90
2973;DHT22;1496;51.404;7.232;2023-01-04T18:18:48;11.10;99.90
2973;DHT22;1496;51.404;7.232;2023-01-04T18:21:20;11.10;99.90
2973;DHT22;1496;51.404;7.232;2023-01-04T18:23:50;11.10;99.90